sensor_id;sensor_type;location;lat;lon;timestamp;temperature;humidity
8008;DHT22;4049;49.468;11.200;2024-02-26T00:00:15;1.00;99.90
8008;DHT22;4049;49.468;11.200;2024-02-26T00:02:42;1.00;99.90
8008;DHT22;4049;49.468;11.200;2024-02-26T00:05:09;1.00;99.90
8008;DHT22;4049;49.468;11.200;2024-02-26T00:07:35;1.00;99.90
8008;DHT22;4049;49.468;11.200;2024-02-26T00:10:04;1.00;99.90
8008;DHT22;4049;49.468;11.200;2024-02-26T00:12:31;0.90;99.90
8008;DHT22;4049;49.468;11.200;2024-02-26T00:14:57;0.90;99.90
8008;DHT22;4049;49.468;11.200;2024-02-26T00:17:26;0.90;99.90
8008;DHT22;4049;49.468;11.200;2024-02-26T00:19:53;0.90;99.90
8008;DHT22;4049;49.468;11.200;2024-02-26T00:22:18;0.90;99.90
8008;DHT22;4049;49.468;11.200;2024-02-26T00:24:45;0.90;99.90
8008;DHT22;4049;49.468;11.200;2024-02-26T00:27:12;0.80;99.90
8008;DHT22;4049;49.468;11.200;2024-02-26T00:29:39;0.80;99.90
8008;DHT22;4049;49.468;11.200;2024-02-26T00:32:06;0.80;99.90
8008;DHT22;4049;49.468;11.200;2024-02-26T00:34:35;0.80;99.90
8008;DHT22;4049;49.468;11.200;2024-02-26T00:37:02;0.80;99.90
8008;DHT22;4049;49.468;11.200;2024-02-26T00:39:28;0.80;99.90
8008;DHT22;4049;49.468;11.200;2024-02-26T00:41:55;0.70;99.90
8008;DHT22;4049;49.468;11.200;2024-02-26T00:44:22;0.80;99.90
8008;DHT22;4049;49.468;11.200;2024-02-26T00:46:49;0.70;99.90
8008;DHT22;4049;49.468;11.200;2024-02-26T00:49:16;0.70;99.90
8008;DHT22;4049;49.468;11.200;2024-02-26T00:51:44;0.70;99.90
8008;DHT22;4049;49.468;11.200;2024-02-26T00:54:11;0.70;99.90
8008;DHT22;4049;49.468;11.200;2024-02-26T00:56:38;0.70;99.90
8008;DHT22;4049;49.468;11.200;2024-02-26T00:59:05;0.60;99.90
8008;DHT22;4049;49.468;11.200;2024-02-26T01:01:32;0.70;99.90
8008;DHT22;4049;49.468;11.200;2024-02-26T01:03:59;0.60;99.90
8008;DHT22;4049;49.468;11.200;2024-02-26T01:06:29;0.60;99.90
8008;DHT22;4049;49.468;11.200;2024-02-26T01:08:57;0.60;99.90
8008;DHT22;4049;49.468;11.200;2024-02-26T01:11:24;0.60;99.90
8008;DHT22;4049;49.468;11.200;2024-02-26T01:13:51;0.60;99.90
8008;DHT22;4049;49.468;11.200;2024-02-26T01:16:22;0.60;99.90
8008;DHT22;4049;49.468;11.200;2024-02-26T01:18:48;0.50;99.90
8008;DHT22;4049;49.468;11.200;2024-02-26T01:21:15;0.50;99.90
8008;DHT22;4049;49.468;11.200;2024-02-26T01:23:42;0.50;99.90
8008;DHT22;4049;49.468;11.200;2024-02-26T01:26:10;0.50;99.90
8008;DHT22;4049;49.468;11.200;2024-02-26T01:28:37;0.50;99.90
8008;DHT22;4049;49.468;11.200;2024-02-26T01:31:04;0.50;99.90
8008;DHT22;4049;49.468;11.200;2024-02-26T01:33:34;0.40;99.90
8008;DHT22;4049;49.468;11.200;2024-02-26T01:36:00;0.50;99.90
8008;DHT22;4049;49.468;11.200;2024-02-26T01:38:28;0.40;99.90
8008;DHT22;4049;49.468;11.200;2024-02-26T01:40:55;0.40;99.90
8008;DHT22;4049;49.468;11.200;2024-02-26T01:43:23;0.40;99.90
8008;DHT22;4049;49.468;11.200;2024-02-26T01:45:50;0.40;99.90
8008;DHT22;4049;49.468;11.200;2024-02-26T01:48:16;0.40;99.90
8008;DHT22;4049;49.468;11.200;2024-02-26T01:50:43;0.30;99.90
8008;DHT22;4049;49.468;11.200;2024-02-26T01:53:10;0.40;99.90
8008;DHT22;4049;49.468;11.200;2024-02-26T01:55:37;0.40;99.90
8008;DHT22;4049;49.468;11.200;2024-02-26T01:58:05;0.40;99.90
8008;DHT22;4049;49.468;11.200;2024-02-26T02:00:33;0.40;99.90
8008;DHT22;4049;49.468;11.200;2024-02-26T02:03:00;0.40;99.90
8008;DHT22;4049;49.468;11.200;2024-02-26T02:05:29;0.40;99.90
8008;DHT22;4049;49.468;11.200;2024-02-26T02:07:56;0.40;99.90
8008;DHT22;4049;49.468;11.200;2024-02-26T02:10:24;0.40;99.90
8008;DHT22;4049;49.468;11.200;2024-02-26T02:12:52;0.40;99.90
8008;DHT22;4049;49.468;11.200;2024-02-26T02:15:19;0.40;99.90
8008;DHT22;4049;49.468;11.200;2024-02-26T02:17:47;0.40;99.90
8008;DHT22;4049;49.468;11.200;2024-02-26T02:20:16;0.50;99.90
8008;DHT22;4049;49.468;11.200;2024-02-26T02:22:45;0.50;99.90
8008;DHT22;4049;49.468;11.200;2024-02-26T02:25:13;0.50;99.90
8008;DHT22;4049;49.468;11.200;2024-02-26T02:27:40;0.50;99.90
8008;DHT22;4049;49.468;11.200;2024-02-26T02:30:08;0.50;99.90
8008;DHT22;4049;49.468;11.200;2024-02-26T02:32:37;0.50;99.90
8008;DHT22;4049;49.468;11.200;2024-02-26T02:35:04;0.50;99.90
8008;DHT22;4049;49.468;11.200;2024-02-26T02:37:31;0.50;99.90
8008;DHT22;4049;49.468;11.200;2024-02-26T02:40:00;0.50;99.90
8008;DHT22;4049;49.468;11.200;2024-02-26T02:42:27;0.50;99.90
8008;DHT22;4049;49.468;11.200;2024-02-26T02:44:53;0.50;99.90
8008;DHT22;4049;49.468;11.200;2024-02-26T02:47:20;0.50;99.90
8008;DHT22;4049;49.468;11.200;2024-02-26T02:49:46;0.60;99.90
8008;DHT22;4049;49.468;11.200;2024-02-26T02:52:13;0.50;99.90
8008;DHT22;4049;49.468;11.200;2024-02-26T02:54:40;0.60;99.90
8008;DHT22;4049;49.468;11.200;2024-02-26T02:57:09;0.60;99.90
8008;DHT22;4049;49.468;11.200;2024-02-26T02:59:36;0.60;99.90
8008;DHT22;4049;49.468;11.200;2024-02-26T03:02:03;0.60;99.90
8008;DHT22;4049;49.468;11.200;2024-02-26T03:04:30;0.60;99.90
8008;DHT22;4049;49.468;11.200;2024-02-26T03:06:57;0.70;99.90
8008;DHT22;4049;49.468;11.200;2024-02-26T03:09:24;0.70;99.90
8008;DHT22;4049;49.468;11.200;2024-02-26T03:11:51;0.70;99.90
8008;DHT22;4049;49.468;11.200;2024-02-26T03:14:19;0.70;99.90
8008;DHT22;4049;49.468;11.200;2024-02-26T03:16:46;0.70;99.90
8008;DHT22;4049;49.468;11.200;2024-02-26T03:19:14;0.70;99.90
8008;DHT22;4049;49.468;11.200;2024-02-26T03:21:41;0.70;99.90
8008;DHT22;4049;49.468;11.200;2024-02-26T03:24:08;0.70;99.90
8008;DHT22;4049;49.468;11.200;2024-02-26T03:26:36;0.80;99.90
8008;DHT22;4049;49.468;11.200;2024-02-26T03:29:02;0.80;99.90
8008;DHT22;4049;49.468;11.200;2024-02-26T03:31:31;0.80;99.90
8008;DHT22;4049;49.468;11.200;2024-02-26T03:33:58;0.80;99.90
8008;DHT22;4049;49.468;11.200;2024-02-26T03:36:25;0.90;99.90
8008;DHT22;4049;49.468;11.200;2024-02-26T03:38:52;1.00;99.90
8008;DHT22;4049;49.468;11.200;2024-02-26T03:41:19;1.00;99.90
8008;DHT22;4049;49.468;11.200;2024-02-26T03:43:46;1.10;99.90
8008;DHT22;4049;49.468;11.200;2024-02-26T03:46:13;1.10;99.90
8008;DHT22;4049;49.468;11.200;2024-02-26T03:48:41;1.10;99.90
8008;DHT22;4049;49.468;11.200;2024-02-26T03:51:10;1.10;99.90
8008;DHT22;4049;49.468;11.200;2024-02-26T03:53:37;1.20;99.90
8008;DHT22;4049;49.468;11.200;2024-02-26T03:56:05;1.20;99.90
8008;DHT22;4049;49.468;11.200;2024-02-26T03:58:32;1.20;99.90
8008;DHT22;4049;49.468;11.200;2024-02-26T04:00:59;1.20;99.90
8008;DHT22;4049;49.468;11.200;2024-02-26T04:03:26;1.20;99.90
8008;DHT22;4049;49.468;11.200;2024-02-26T04:05:54;1.20;99.90
8008;DHT22;4049;49.468;11.200;2024-02-26T04:08:21;1.20;99.90
8008;DHT22;4049;49.468;11.200;2024-02-26T04:10:48;1.20;99.90
8008;DHT22;4049;49.468;11.200;2024-02-26T04:13:14;1.20;99.90
8008;DHT22;4049;49.468;11.200;2024-02-26T04:15:41;1.20;99.90
8008;DHT22;4049;49.468;11.200;2024-02-26T04:18:08;1.20;99.90
8008;DHT22;4049;49.468;11.200;2024-02-26T04:20:35;1.20;99.90
8008;DHT22;4049;49.468;11.200;2024-02-26T04:23:04;1.20;99.90
8008;DHT22;4049;49.468;11.200;2024-02-26T04:25:34;1.30;99.90
8008;DHT22;4049;49.468;11.200;2024-02-26T04:28:01;1.30;99.90
8008;DHT22;4049;49.468;11.200;2024-02-26T04:30:28;1.30;99.90
8008;DHT22;4049;49.468;11.200;2024-02-26T04:32:54;1.40;99.90
8008;DHT22;4049;49.468;11.200;2024-02-26T04:35:21;1.40;99.90
8008;DHT22;4049;49.468;11.200;2024-02-26T04:37:48;1.40;99.90
8008;DHT22;4049;49.468;11.200;2024-02-26T04:40:16;1.40;99.90
8008;DHT22;4049;49.468;11.200;2024-02-26T04:42:43;1.40;99.90
8008;DHT22;4049;49.468;11.200;2024-02-26T04:45:13;1.40;99.90
8008;DHT22;4049;49.468;11.200;2024-02-26T04:47:40;1.40;99.90
8008;DHT22;4049;49.468;11.200;2024-02-26T04:50:07;1.40;99.90
8008;DHT22;4049;49.468;11.200;2024-02-26T04:52:34;1.40;99.90
8008;DHT22;4049;49.468;11.200;2024-02-26T04:55:02;1.40;99.90
8008;DHT22;4049;49.468;11.200;2024-02-26T04:57:30;1.40;99.90
8008;DHT22;4049;49.468;11.200;2024-02-26T04:59:57;1.40;99.90
8008;DHT22;4049;49.468;11.200;2024-02-26T05:02:24;1.40;99.90
8008;DHT22;4049;49.468;11.200;2024-02-26T05:04:51;1.40;99.90
8008;DHT22;4049;49.468;11.200;2024-02-26T05:07:18;1.40;99.90
8008;DHT22;4049;49.468;11.200;2024-02-26T05:09:46;1.40;99.90
8008;DHT22;4049;49.468;11.200;2024-02-26T05:12:15;1.50;99.90
8008;DHT22;4049;49.468;11.200;2024-02-26T05:14:43;1.50;99.90
8008;DHT22;4049;49.468;11.200;2024-02-26T05:17:10;1.50;99.90
8008;DHT22;4049;49.468;11.200;2024-02-26T05:19:37;1.50;99.90
8008;DHT22;4049;49.468;11.200;2024-02-26T05:22:04;1.60;99.90
8008;DHT22;4049;49.468;11.200;2024-02-26T05:24:31;1.60;99.90
8008;DHT22;4049;49.468;11.200;2024-02-26T05:26:57;1.60;99.90
8008;DHT22;4049;49.468;11.200;2024-02-26T05:29:24;1.70;99.90
8008;DHT22;4049;49.468;11.200;2024-02-26T05:31:53;1.70;99.90
8008;DHT22;4049;49.468;11.200;2024-02-26T05:34:20;1.80;99.90
8008;DHT22;4049;49.468;11.200;2024-02-26T05:36:47;1.80;99.90
8008;DHT22;4049;49.468;11.200;2024-02-26T05:39:14;1.80;99.90
8008;DHT22;4049;49.468;11.200;2024-02-26T05:41:41;1.90;99.90
8008;DHT22;4049;49.468;11.200;2024-02-26T05:44:08;1.90;99.90
8008;DHT22;4049;49.468;11.200;2024-02-26T05:46:36;2.00;99.90
8008;DHT22;4049;49.468;11.200;2024-02-26T05:49:04;2.00;99.90
8008;DHT22;4049;49.468;11.200;2024-02-26T05:51:31;2.00;99.90
8008;DHT22;4049;49.468;11.200;2024-02-26T05:53:58;2.10;99.90
8008;DHT22;4049;49.468;11.200;2024-02-26T05:56:25;2.10;99.90
8008;DHT22;4049;49.468;11.200;2024-02-26T05:58:52;2.10;99.90
8008;DHT22;4049;49.468;11.200;2024-02-26T06:01:20;2.10;99.90
8008;DHT22;4049;49.468;11.200;2024-02-26T06:03:47;2.10;99.90
8008;DHT22;4049;49.468;11.200;2024-02-26T06:06:15;2.20;99.90
8008;DHT22;4049;49.468;11.200;2024-02-26T06:08:42;2.20;99.90
8008;DHT22;4049;49.468;11.200;2024-02-26T06:11:09;2.20;99.90
8008;DHT22;4049;49.468;11.200;2024-02-26T06:13:36;2.20;99.90
8008;DHT22;4049;49.468;11.200;2024-02-26T06:16:08;2.20;99.90
8008;DHT22;4049;49.468;11.200;2024-02-26T06:18:34;2.20;99.90
8008;DHT22;4049;49.468;11.200;2024-02-26T06:21:01;2.20;99.90
8008;DHT22;4049;49.468;11.200;2024-02-26T06:23:30;2.20;99.90
8008;DHT22;4049;49.468;11.200;2024-02-26T06:25:57;2.30;99.90
8008;DHT22;4049;49.468;11.200;2024-02-26T06:28:24;2.30;99.90
8008;DHT22;4049;49.468;11.200;2024-02-26T06:30:51;2.30;99.90
8008;DHT22;4049;49.468;11.200;2024-02-26T06:33:18;2.30;99.90
8008;DHT22;4049;49.468;11.200;2024-02-26T06:35:45;2.30;99.90
8008;DHT22;4049;49.468;11.200;2024-02-26T06:38:12;2.40;99.90
8008;DHT22;4049;49.468;11.200;2024-02-26T06:40:40;2.40;99.90
8008;DHT22;4049;49.468;11.200;2024-02-26T06:43:07;2.40;99.90
8008;DHT22;4049;49.468;11.200;2024-02-26T06:45:34;2.40;99.90
8008;DHT22;4049;49.468;11.200;2024-02-26T06:48:01;2.50;99.90
8008;DHT22;4049;49.468;11.200;2024-02-26T06:50:31;2.50;99.90
8008;DHT22;4049;49.468;11.200;2024-02-26T06:52:58;2.60;99.90
8008;DHT22;4049;49.468;11.200;2024-02-26T06:55:25;2.60;99.90
8008;DHT22;4049;49.468;11.200;2024-02-26T06:57:52;2.70;99.90
8008;DHT22;4049;49.468;11.200;2024-02-26T07:00:19;2.70;99.90
8008;DHT22;4049;49.468;11.200;2024-02-26T07:02:46;2.80;99.90
8008;DHT22;4049;49.468;11.200;2024-02-26T07:05:13;2.80;99.90
8008;DHT22;4049;49.468;11.200;2024-02-26T07:07:40;2.90;99.90
8008;DHT22;4049;49.468;11.200;2024-02-26T07:10:07;2.90;99.90
8008;DHT22;4049;49.468;11.200;2024-02-26T07:12:34;2.90;99.90
8008;DHT22;4049;49.468;11.200;2024-02-26T07:15:03;3.00;99.90
8008;DHT22;4049;49.468;11.200;2024-02-26T07:17:30;3.00;99.90
8008;DHT22;4049;49.468;11.200;2024-02-26T07:19:59;3.10;99.90
8008;DHT22;4049;49.468;11.200;2024-02-26T07:22:25;3.10;99.90
8008;DHT22;4049;49.468;11.200;2024-02-26T07:24:52;3.20;99.90
8008;DHT22;4049;49.468;11.200;2024-02-26T07:27:19;3.20;99.90
8008;DHT22;4049;49.468;11.200;2024-02-26T07:29:46;3.20;99.90
8008;DHT22;4049;49.468;11.200;2024-02-26T07:32:15;3.30;99.90
8008;DHT22;4049;49.468;11.200;2024-02-26T07:34:41;3.30;99.90
8008;DHT22;4049;49.468;11.200;2024-02-26T07:37:10;3.30;99.90
8008;DHT22;4049;49.468;11.200;2024-02-26T07:39:37;3.40;99.90
8008;DHT22;4049;49.468;11.200;2024-02-26T07:42:04;3.40;99.90
8008;DHT22;4049;49.468;11.200;2024-02-26T07:44:31;3.50;99.90
8008;DHT22;4049;49.468;11.200;2024-02-26T07:46:58;3.50;99.90
8008;DHT22;4049;49.468;11.200;2024-02-26T07:49:26;3.60;99.90
8008;DHT22;4049;49.468;11.200;2024-02-26T07:51:53;3.70;99.90
8008;DHT22;4049;49.468;11.200;2024-02-26T07:54:22;3.70;99.90
8008;DHT22;4049;49.468;11.200;2024-02-26T07:56:49;3.80;99.90
8008;DHT22;4049;49.468;11.200;2024-02-26T07:59:16;3.90;99.90
8008;DHT22;4049;49.468;11.200;2024-02-26T08:01:43;3.90;99.90
8008;DHT22;4049;49.468;11.200;2024-02-26T08:04:11;4.00;99.90
8008;DHT22;4049;49.468;11.200;2024-02-26T08:06:39;4.10;99.90
8008;DHT22;4049;49.468;11.200;2024-02-26T08:09:06;4.20;99.90
8008;DHT22;4049;49.468;11.200;2024-02-26T08:11:38;4.30;99.90
8008;DHT22;4049;49.468;11.200;2024-02-26T08:14:05;4.40;99.90
8008;DHT22;4049;49.468;11.200;2024-02-26T08:16:31;4.50;99.90
8008;DHT22;4049;49.468;11.200;2024-02-26T08:18:58;4.50;99.90
8008;DHT22;4049;49.468;11.200;2024-02-26T08:21:28;4.70;99.90
8008;DHT22;4049;49.468;11.200;2024-02-26T08:23:56;4.70;99.90
8008;DHT22;4049;49.468;11.200;2024-02-26T08:26:23;4.70;99.90
8008;DHT22;4049;49.468;11.200;2024-02-26T08:28:50;4.80;99.90
8008;DHT22;4049;49.468;11.200;2024-02-26T08:31:17;4.80;99.90
8008;DHT22;4049;49.468;11.200;2024-02-26T08:33:44;4.80;99.90
8008;DHT22;4049;49.468;11.200;2024-02-26T08:36:11;4.80;99.90
8008;DHT22;4049;49.468;11.200;2024-02-26T08:38:38;4.80;99.90
8008;DHT22;4049;49.468;11.200;2024-02-26T08:41:06;4.90;99.90
8008;DHT22;4049;49.468;11.200;2024-02-26T08:43:33;4.90;99.90
8008;DHT22;4049;49.468;11.200;2024-02-26T08:46:00;4.90;99.90
8008;DHT22;4049;49.468;11.200;2024-02-26T08:48:28;4.90;99.90
8008;DHT22;4049;49.468;11.200;2024-02-26T08:50:55;4.90;99.90
8008;DHT22;4049;49.468;11.200;2024-02-26T08:53:25;5.00;99.90
8008;DHT22;4049;49.468;11.200;2024-02-26T08:55:52;5.00;99.90
8008;DHT22;4049;49.468;11.200;2024-02-26T08:58:20;5.00;99.90
8008;DHT22;4049;49.468;11.200;2024-02-26T09:00:47;5.00;99.90
8008;DHT22;4049;49.468;11.200;2024-02-26T09:03:14;5.10;99.90
8008;DHT22;4049;49.468;11.200;2024-02-26T09:05:41;5.20;99.90
8008;DHT22;4049;49.468;11.200;2024-02-26T09:08:08;5.30;99.90
8008;DHT22;4049;49.468;11.200;2024-02-26T09:10:35;5.30;99.90
8008;DHT22;4049;49.468;11.200;2024-02-26T09:13:02;5.40;99.90
8008;DHT22;4049;49.468;11.200;2024-02-26T09:15:30;5.50;99.90
8008;DHT22;4049;49.468;11.200;2024-02-26T09:17:57;5.60;99.90
8008;DHT22;4049;49.468;11.200;2024-02-26T09:20:24;5.80;99.90
8008;DHT22;4049;49.468;11.200;2024-02-26T09:22:51;5.80;99.90
8008;DHT22;4049;49.468;11.200;2024-02-26T09:25:19;6.00;99.90
8008;DHT22;4049;49.468;11.200;2024-02-26T09:27:46;6.10;99.90
8008;DHT22;4049;49.468;11.200;2024-02-26T09:30:13;6.20;99.90
8008;DHT22;4049;49.468;11.200;2024-02-26T09:32:46;6.30;99.90
8008;DHT22;4049;49.468;11.200;2024-02-26T09:35:13;6.40;99.90
8008;DHT22;4049;49.468;11.200;2024-02-26T09:37:40;6.60;99.90
8008;DHT22;4049;49.468;11.200;2024-02-26T09:40:10;6.70;99.90
8008;DHT22;4049;49.468;11.200;2024-02-26T09:42:43;6.80;99.90
8008;DHT22;4049;49.468;11.200;2024-02-26T09:45:12;7.00;99.90
8008;DHT22;4049;49.468;11.200;2024-02-26T09:47:39;7.10;99.90
8008;DHT22;4049;49.468;11.200;2024-02-26T09:50:09;7.30;99.90
8008;DHT22;4049;49.468;11.200;2024-02-26T09:52:38;7.40;99.90
8008;DHT22;4049;49.468;11.200;2024-02-26T09:55:08;7.50;99.90
8008;DHT22;4049;49.468;11.200;2024-02-26T09:57:36;7.60;99.90
8008;DHT22;4049;49.468;11.200;2024-02-26T10:00:04;7.70;99.90
8008;DHT22;4049;49.468;11.200;2024-02-26T10:02:36;7.80;99.90
8008;DHT22;4049;49.468;11.200;2024-02-26T10:05:05;7.90;99.90
8008;DHT22;4049;49.468;11.200;2024-02-26T10:07:35;8.00;99.90
8008;DHT22;4049;49.468;11.200;2024-02-26T10:10:03;8.10;99.90
8008;DHT22;4049;49.468;11.200;2024-02-26T10:12:30;8.20;99.90
8008;DHT22;4049;49.468;11.200;2024-02-26T10:14:58;8.30;99.90
8008;DHT22;4049;49.468;11.200;2024-02-26T10:17:25;8.30;99.90
8008;DHT22;4049;49.468;11.200;2024-02-26T10:19:53;8.40;99.90
8008;DHT22;4049;49.468;11.200;2024-02-26T10:22:22;8.50;99.90
8008;DHT22;4049;49.468;11.200;2024-02-26T10:24:50;8.50;99.90
8008;DHT22;4049;49.468;11.200;2024-02-26T10:27:18;8.50;99.90
8008;DHT22;4049;49.468;11.200;2024-02-26T10:29:48;8.60;99.90
8008;DHT22;4049;49.468;11.200;2024-02-26T10:32:17;8.60;99.90
8008;DHT22;4049;49.468;11.200;2024-02-26T10:34:44;8.60;99.90
8008;DHT22;4049;49.468;11.200;2024-02-26T10:37:11;8.70;99.90
8008;DHT22;4049;49.468;11.200;2024-02-26T10:39:38;8.70;99.90
8008;DHT22;4049;49.468;11.200;2024-02-26T10:42:12;8.70;99.90
8008;DHT22;4049;49.468;11.200;2024-02-26T10:44:40;8.80;99.90
8008;DHT22;4049;49.468;11.200;2024-02-26T10:47:09;8.80;99.90
8008;DHT22;4049;49.468;11.200;2024-02-26T10:49:36;8.90;99.90
8008;DHT22;4049;49.468;11.200;2024-02-26T10:52:04;8.90;99.90
8008;DHT22;4049;49.468;11.200;2024-02-26T10:54:33;9.00;99.90
8008;DHT22;4049;49.468;11.200;2024-02-26T10:57:01;9.10;99.90
8008;DHT22;4049;49.468;11.200;2024-02-26T10:59:33;9.10;99.90
8008;DHT22;4049;49.468;11.200;2024-02-26T11:02:01;9.20;99.90
8008;DHT22;4049;49.468;11.200;2024-02-26T11:04:29;9.20;99.90
8008;DHT22;4049;49.468;11.200;2024-02-26T11:06:57;9.30;99.90
8008;DHT22;4049;49.468;11.200;2024-02-26T11:09:25;9.30;99.90
8008;DHT22;4049;49.468;11.200;2024-02-26T11:11:53;9.40;99.90
8008;DHT22;4049;49.468;11.200;2024-02-26T11:14:21;9.40;99.90
8008;DHT22;4049;49.468;11.200;2024-02-26T11:16:49;9.40;99.90
8008;DHT22;4049;49.468;11.200;2024-02-26T11:19:18;9.50;99.90
8008;DHT22;4049;49.468;11.200;2024-02-26T11:21:45;9.50;99.90
8008;DHT22;4049;49.468;11.200;2024-02-26T11:24:15;9.50;99.90
8008;DHT22;4049;49.468;11.200;2024-02-26T11:26:46;9.60;99.90
8008;DHT22;4049;49.468;11.200;2024-02-26T11:29:21;9.50;99.90
8008;DHT22;4049;49.468;11.200;2024-02-26T11:31:50;9.60;99.90
8008;DHT22;4049;49.468;11.200;2024-02-26T11:34:17;9.60;99.90
8008;DHT22;4049;49.468;11.200;2024-02-26T11:36:45;9.70;99.90
8008;DHT22;4049;49.468;11.200;2024-02-26T11:39:13;9.80;99.90
8008;DHT22;4049;49.468;11.200;2024-02-26T11:41:42;9.90;99.90
8008;DHT22;4049;49.468;11.200;2024-02-26T11:44:09;10.10;99.90
8008;DHT22;4049;49.468;11.200;2024-02-26T11:46:39;10.20;99.90
8008;DHT22;4049;49.468;11.200;2024-02-26T11:49:31;10.40;99.90
8008;DHT22;4049;49.468;11.200;2024-02-26T11:52:00;10.60;99.90
8008;DHT22;4049;49.468;11.200;2024-02-26T11:54:39;10.80;99.90
8008;DHT22;4049;49.468;11.200;2024-02-26T11:57:21;10.90;99.90
8008;DHT22;4049;49.468;11.200;2024-02-26T11:59:48;11.10;99.90
8008;DHT22;4049;49.468;11.200;2024-02-26T12:05:31;11.30;99.90
8008;DHT22;4049;49.468;11.200;2024-02-26T12:08:00;11.40;99.90
8008;DHT22;4049;49.468;11.200;2024-02-26T12:10:31;11.50;99.90
8008;DHT22;4049;49.468;11.200;2024-02-26T12:13:07;11.60;99.90
8008;DHT22;4049;49.468;11.200;2024-02-26T12:15:37;11.70;99.90
8008;DHT22;4049;49.468;11.200;2024-02-26T12:18:06;11.90;99.90
8008;DHT22;4049;49.468;11.200;2024-02-26T12:20:34;12.10;99.90
8008;DHT22;4049;49.468;11.200;2024-02-26T12:23:02;12.20;99.90
8008;DHT22;4049;49.468;11.200;2024-02-26T12:25:30;12.30;99.90
8008;DHT22;4049;49.468;11.200;2024-02-26T12:27:58;12.40;99.90
8008;DHT22;4049;49.468;11.200;2024-02-26T12:30:26;12.50;99.90
8008;DHT22;4049;49.468;11.200;2024-02-26T12:32:55;12.60;99.90
8008;DHT22;4049;49.468;11.200;2024-02-26T12:35:24;12.70;99.90
8008;DHT22;4049;49.468;11.200;2024-02-26T12:37:52;12.80;99.90
8008;DHT22;4049;49.468;11.200;2024-02-26T12:40:20;12.90;99.90
8008;DHT22;4049;49.468;11.200;2024-02-26T12:42:47;13.00;99.90
8008;DHT22;4049;49.468;11.200;2024-02-26T12:45:15;13.10;99.90
8008;DHT22;4049;49.468;11.200;2024-02-26T12:47:43;13.10;99.90
8008;DHT22;4049;49.468;11.200;2024-02-26T12:50:11;13.00;99.90
8008;DHT22;4049;49.468;11.200;2024-02-26T12:52:41;13.00;99.90
8008;DHT22;4049;49.468;11.200;2024-02-26T12:55:12;13.10;99.90
8008;DHT22;4049;49.468;11.200;2024-02-26T12:57:42;13.10;97.90
8008;DHT22;4049;49.468;11.200;2024-02-26T13:00:12;13.20;98.50
8008;DHT22;4049;49.468;11.200;2024-02-26T13:02:41;13.30;95.20
8008;DHT22;4049;49.468;11.200;2024-02-26T13:05:10;13.50;94.80
8008;DHT22;4049;49.468;11.200;2024-02-26T13:07:41;13.60;85.80
8008;DHT22;4049;49.468;11.200;2024-02-26T13:10:10;13.60;91.00
8008;DHT22;4049;49.468;11.200;2024-02-26T13:12:41;13.70;92.70
8008;DHT22;4049;49.468;11.200;2024-02-26T13:15:14;13.80;90.60
8008;DHT22;4049;49.468;11.200;2024-02-26T13:17:41;13.90;93.10
8008;DHT22;4049;49.468;11.200;2024-02-26T13:20:09;13.90;76.60
8008;DHT22;4049;49.468;11.200;2024-02-26T13:22:36;14.00;73.70
8008;DHT22;4049;49.468;11.200;2024-02-26T13:25:04;14.10;77.20
8008;DHT22;4049;49.468;11.200;2024-02-26T13:27:34;14.30;79.00
8008;DHT22;4049;49.468;11.200;2024-02-26T13:30:08;14.40;74.60
8008;DHT22;4049;49.468;11.200;2024-02-26T13:32:37;14.40;74.50
8008;DHT22;4049;49.468;11.200;2024-02-26T13:35:07;14.50;74.10
8008;DHT22;4049;49.468;11.200;2024-02-26T13:37:35;14.50;67.60
8008;DHT22;4049;49.468;11.200;2024-02-26T13:40:05;14.50;68.60
8008;DHT22;4049;49.468;11.200;2024-02-26T13:42:34;14.40;58.90
8008;DHT22;4049;49.468;11.200;2024-02-26T13:45:00;14.30;62.50
8008;DHT22;4049;49.468;11.200;2024-02-26T13:47:28;14.10;64.90
8008;DHT22;4049;49.468;11.200;2024-02-26T13:49:55;14.00;63.20
8008;DHT22;4049;49.468;11.200;2024-02-26T13:52:22;13.90;59.80
8008;DHT22;4049;49.468;11.200;2024-02-26T13:54:49;13.80;63.30
8008;DHT22;4049;49.468;11.200;2024-02-26T13:57:16;13.70;65.70
8008;DHT22;4049;49.468;11.200;2024-02-26T13:59:45;13.60;70.50
8008;DHT22;4049;49.468;11.200;2024-02-26T14:02:13;13.50;74.20
8008;DHT22;4049;49.468;11.200;2024-02-26T14:04:40;13.40;80.00
8008;DHT22;4049;49.468;11.200;2024-02-26T14:07:07;13.30;83.60
8008;DHT22;4049;49.468;11.200;2024-02-26T14:09:35;13.20;85.20
8008;DHT22;4049;49.468;11.200;2024-02-26T14:12:02;13.10;85.10
8008;DHT22;4049;49.468;11.200;2024-02-26T14:14:29;13.00;88.20
8008;DHT22;4049;49.468;11.200;2024-02-26T14:16:59;13.00;90.90
8008;DHT22;4049;49.468;11.200;2024-02-26T14:19:26;12.90;91.70
8008;DHT22;4049;49.468;11.200;2024-02-26T14:21:54;12.90;91.90
8008;DHT22;4049;49.468;11.200;2024-02-26T14:24:21;12.80;90.50
8008;DHT22;4049;49.468;11.200;2024-02-26T14:26:47;12.70;92.00
8008;DHT22;4049;49.468;11.200;2024-02-26T14:29:14;12.60;91.70
8008;DHT22;4049;49.468;11.200;2024-02-26T14:31:42;12.50;92.30
8008;DHT22;4049;49.468;11.200;2024-02-26T14:34:10;12.30;92.90
8008;DHT22;4049;49.468;11.200;2024-02-26T14:36:37;12.20;92.90
8008;DHT22;4049;49.468;11.200;2024-02-26T14:39:03;12.20;93.00
8008;DHT22;4049;49.468;11.200;2024-02-26T14:41:30;12.10;93.90
8008;DHT22;4049;49.468;11.200;2024-02-26T14:43:57;12.00;95.50
8008;DHT22;4049;49.468;11.200;2024-02-26T14:46:24;12.00;96.00
8008;DHT22;4049;49.468;11.200;2024-02-26T14:48:51;12.00;95.30
8008;DHT22;4049;49.468;11.200;2024-02-26T14:51:19;12.00;96.10
8008;DHT22;4049;49.468;11.200;2024-02-26T14:53:46;12.00;96.70
8008;DHT22;4049;49.468;11.200;2024-02-26T14:56:13;12.00;97.30
8008;DHT22;4049;49.468;11.200;2024-02-26T14:58:40;11.90;96.50
8008;DHT22;4049;49.468;11.200;2024-02-26T15:01:07;11.90;97.00
8008;DHT22;4049;49.468;11.200;2024-02-26T15:03:34;11.90;97.60
8008;DHT22;4049;49.468;11.200;2024-02-26T15:06:01;11.80;97.60
8008;DHT22;4049;49.468;11.200;2024-02-26T15:08:29;11.70;98.30
8008;DHT22;4049;49.468;11.200;2024-02-26T15:10:56;11.70;98.40
8008;DHT22;4049;49.468;11.200;2024-02-26T15:13:23;11.70;98.60
8008;DHT22;4049;49.468;11.200;2024-02-26T15:15:49;11.60;98.80
8008;DHT22;4049;49.468;11.200;2024-02-26T15:18:16;11.60;99.40
8008;DHT22;4049;49.468;11.200;2024-02-26T15:20:44;11.50;99.90
8008;DHT22;4049;49.468;11.200;2024-02-26T15:23:11;11.50;99.90
8008;DHT22;4049;49.468;11.200;2024-02-26T15:25:39;11.50;99.90
8008;DHT22;4049;49.468;11.200;2024-02-26T15:28:07;11.40;99.90
8008;DHT22;4049;49.468;11.200;2024-02-26T15:30:35;11.40;99.90
8008;DHT22;4049;49.468;11.200;2024-02-26T15:33:02;11.40;99.90
8008;DHT22;4049;49.468;11.200;2024-02-26T15:35:29;11.40;99.90
8008;DHT22;4049;49.468;11.200;2024-02-26T15:37:56;11.30;99.90
8008;DHT22;4049;49.468;11.200;2024-02-26T15:40:23;11.30;99.90
8008;DHT22;4049;49.468;11.200;2024-02-26T15:42:52;11.30;99.90
8008;DHT22;4049;49.468;11.200;2024-02-26T15:45:18;11.20;99.90
8008;DHT22;4049;49.468;11.200;2024-02-26T15:47:45;11.20;99.90
8008;DHT22;4049;49.468;11.200;2024-02-26T15:50:13;11.10;99.90
8008;DHT22;4049;49.468;11.200;2024-02-26T15:52:40;11.00;99.90
8008;DHT22;4049;49.468;11.200;2024-02-26T15:55:07;11.00;99.90
8008;DHT22;4049;49.468;11.200;2024-02-26T15:57:34;11.00;99.90
8008;DHT22;4049;49.468;11.200;2024-02-26T16:00:03;11.00;99.90
8008;DHT22;4049;49.468;11.200;2024-02-26T16:02:35;10.90;99.90